sensor_id;sensor_type;location;lat;lon;timestamp;P1;durP1;ratioP1;P2;durP2;ratioP2
8887;SDS011;4480;52.370;9.748;2024-02-28T00:01:01;16.63;;;11.82;;
8887;SDS011;4480;52.370;9.748;2024-02-28T00:03:28;15.55;;;11.23;;
8887;SDS011;4480;52.370;9.748;2024-02-28T00:05:57;13.60;;;10.93;;
8887;SDS011;4480;52.370;9.748;2024-02-28T00:08:23;17.27;;;12.50;;
8887;SDS011;4480;52.370;9.748;2024-02-28T00:10:51;18.83;;;12.77;;
8887;SDS011;4480;52.370;9.748;2024-02-28T00:13:18;16.45;;;11.68;;
8887;SDS011;4480;52.370;9.748;2024-02-28T00:15:47;13.52;;;11.63;;
8887;SDS011;4480;52.370;9.748;2024-02-28T00:18:14;14.27;;;11.05;;
8887;SDS011;4480;52.370;9.748;2024-02-28T00:20:41;17.00;;;12.15;;
8887;SDS011;4480;52.370;9.748;2024-02-28T00:23:09;17.50;;;12.63;;
8887;SDS011;4480;52.370;9.748;2024-02-28T00:25:36;13.75;;;11.45;;
8887;SDS011;4480;52.370;9.748;2024-02-28T00:28:05;15.68;;;12.25;;
8887;SDS011;4480;52.370;9.748;2024-02-28T00:30:31;16.45;;;12.23;;
8887;SDS011;4480;52.370;9.748;2024-02-28T00:32:59;15.07;;;11.48;;
8887;SDS011;4480;52.370;9.748;2024-02-28T00:35:26;15.27;;;11.45;;
8887;SDS011;4480;52.370;9.748;2024-02-28T00:37:54;16.10;;;11.80;;
8887;SDS011;4480;52.370;9.748;2024-02-28T00:40:21;16.88;;;12.27;;
8887;SDS011;4480;52.370;9.748;2024-02-28T00:42:48;16.35;;;12.60;;
8887;SDS011;4480;52.370;9.748;2024-02-28T00:45:16;19.15;;;12.48;;
8887;SDS011;4480;52.370;9.748;2024-02-28T00:47:43;16.05;;;12.18;;
8887;SDS011;4480;52.370;9.748;2024-02-28T00:50:10;19.67;;;13.13;;
8887;SDS011;4480;52.370;9.748;2024-02-28T00:52:36;16.17;;;11.80;;
8887;SDS011;4480;52.370;9.748;2024-02-28T00:55:04;17.25;;;12.30;;
8887;SDS011;4480;52.370;9.748;2024-02-28T00:57:31;16.80;;;12.45;;
8887;SDS011;4480;52.370;9.748;2024-02-28T00:59:58;18.40;;;12.75;;
8887;SDS011;4480;52.370;9.748;2024-02-28T01:02:26;16.25;;;11.95;;
8887;SDS011;4480;52.370;9.748;2024-02-28T01:04:53;22.23;;;14.23;;
8887;SDS011;4480;52.370;9.748;2024-02-28T01:07:19;20.15;;;13.52;;
8887;SDS011;4480;52.370;9.748;2024-02-28T01:09:46;19.38;;;13.48;;
8887;SDS011;4480;52.370;9.748;2024-02-28T01:12:13;17.40;;;13.65;;
8887;SDS011;4480;52.370;9.748;2024-02-28T01:14:40;17.63;;;13.32;;
8887;SDS011;4480;52.370;9.748;2024-02-28T01:17:06;18.05;;;13.25;;
8887;SDS011;4480;52.370;9.748;2024-02-28T01:19:34;17.80;;;13.68;;
8887;SDS011;4480;52.370;9.748;2024-02-28T01:22:01;21.98;;;16.05;;
8887;SDS011;4480;52.370;9.748;2024-02-28T01:24:28;20.98;;;13.73;;
8887;SDS011;4480;52.370;9.748;2024-02-28T01:26:54;21.38;;;14.48;;
8887;SDS011;4480;52.370;9.748;2024-02-28T01:29:21;21.60;;;14.18;;
8887;SDS011;4480;52.370;9.748;2024-02-28T01:31:48;19.48;;;15.02;;
8887;SDS011;4480;52.370;9.748;2024-02-28T01:34:15;21.45;;;14.35;;
8887;SDS011;4480;52.370;9.748;2024-02-28T01:36:43;18.85;;;14.45;;
8887;SDS011;4480;52.370;9.748;2024-02-28T01:39:10;23.20;;;15.00;;
8887;SDS011;4480;52.370;9.748;2024-02-28T01:41:36;18.85;;;15.07;;
8887;SDS011;4480;52.370;9.748;2024-02-28T01:44:03;18.90;;;13.55;;
8887;SDS011;4480;52.370;9.748;2024-02-28T01:46:30;24.77;;;16.83;;
8887;SDS011;4480;52.370;9.748;2024-02-28T01:48:58;22.40;;;15.55;;
8887;SDS011;4480;52.370;9.748;2024-02-28T01:51:25;22.23;;;15.60;;
8887;SDS011;4480;52.370;9.748;2024-02-28T01:53:54;23.40;;;15.13;;
8887;SDS011;4480;52.370;9.748;2024-02-28T01:56:22;22.15;;;15.88;;
8887;SDS011;4480;52.370;9.748;2024-02-28T01:58:50;23.23;;;16.10;;
8887;SDS011;4480;52.370;9.748;2024-02-28T02:01:17;21.60;;;15.43;;
8887;SDS011;4480;52.370;9.748;2024-02-28T02:03:44;24.65;;;17.00;;
8887;SDS011;4480;52.370;9.748;2024-02-28T02:06:11;20.60;;;14.18;;
8887;SDS011;4480;52.370;9.748;2024-02-28T02:08:38;22.65;;;15.50;;
8887;SDS011;4480;52.370;9.748;2024-02-28T02:11:06;19.88;;;15.35;;
8887;SDS011;4480;52.370;9.748;2024-02-28T02:13:34;23.58;;;16.23;;
8887;SDS011;4480;52.370;9.748;2024-02-28T02:16:01;22.60;;;15.75;;
8887;SDS011;4480;52.370;9.748;2024-02-28T02:18:28;23.20;;;16.27;;
8887;SDS011;4480;52.370;9.748;2024-02-28T02:20:56;22.48;;;15.20;;
8887;SDS011;4480;52.370;9.748;2024-02-28T02:23:30;23.60;;;16.23;;
8887;SDS011;4480;52.370;9.748;2024-02-28T02:25:56;26.08;;;16.60;;
8887;SDS011;4480;52.370;9.748;2024-02-28T02:28:23;23.45;;;15.65;;
8887;SDS011;4480;52.370;9.748;2024-02-28T02:30:50;27.65;;;17.08;;
8887;SDS011;4480;52.370;9.748;2024-02-28T02:33:16;25.75;;;16.67;;
8887;SDS011;4480;52.370;9.748;2024-02-28T02:35:43;26.20;;;17.65;;
8887;SDS011;4480;52.370;9.748;2024-02-28T02:38:10;23.15;;;16.13;;
8887;SDS011;4480;52.370;9.748;2024-02-28T02:40:38;27.42;;;16.55;;
8887;SDS011;4480;52.370;9.748;2024-02-28T02:43:05;25.15;;;16.20;;
8887;SDS011;4480;52.370;9.748;2024-02-28T02:45:31;25.10;;;16.52;;
8887;SDS011;4480;52.370;9.748;2024-02-28T02:47:58;23.15;;;15.50;;
8887;SDS011;4480;52.370;9.748;2024-02-28T02:50:25;25.05;;;16.60;;
8887;SDS011;4480;52.370;9.748;2024-02-28T02:52:51;28.42;;;18.55;;
8887;SDS011;4480;52.370;9.748;2024-02-28T02:55:18;23.63;;;14.48;;
8887;SDS011;4480;52.370;9.748;2024-02-28T02:57:47;26.77;;;16.80;;
8887;SDS011;4480;52.370;9.748;2024-02-28T03:00:13;28.63;;;18.15;;
8887;SDS011;4480;52.370;9.748;2024-02-28T03:02:40;26.50;;;17.30;;
8887;SDS011;4480;52.370;9.748;2024-02-28T03:05:07;26.10;;;16.50;;
8887;SDS011;4480;52.370;9.748;2024-02-28T03:07:34;28.40;;;16.92;;
8887;SDS011;4480;52.370;9.748;2024-02-28T03:10:01;25.88;;;16.08;;
8887;SDS011;4480;52.370;9.748;2024-02-28T03:12:28;25.83;;;16.02;;
8887;SDS011;4480;52.370;9.748;2024-02-28T03:14:56;24.20;;;16.35;;
8887;SDS011;4480;52.370;9.748;2024-02-28T03:17:23;33.42;;;18.20;;
8887;SDS011;4480;52.370;9.748;2024-02-28T03:19:49;21.50;;;14.75;;
8887;SDS011;4480;52.370;9.748;2024-02-28T03:22:16;24.05;;;15.00;;
8887;SDS011;4480;52.370;9.748;2024-02-28T03:24:43;27.25;;;16.83;;
8887;SDS011;4480;52.370;9.748;2024-02-28T03:27:10;28.92;;;16.80;;
8887;SDS011;4480;52.370;9.748;2024-02-28T03:29:36;27.33;;;17.02;;
8887;SDS011;4480;52.370;9.748;2024-02-28T03:32:05;27.13;;;16.95;;
8887;SDS011;4480;52.370;9.748;2024-02-28T03:34:32;24.13;;;16.45;;
8887;SDS011;4480;52.370;9.748;2024-02-28T03:36:59;28.00;;;17.20;;
8887;SDS011;4480;52.370;9.748;2024-02-28T03:39:25;25.05;;;18.17;;
8887;SDS011;4480;52.370;9.748;2024-02-28T03:41:52;28.33;;;16.80;;
8887;SDS011;4480;52.370;9.748;2024-02-28T03:44:19;21.65;;;15.05;;
8887;SDS011;4480;52.370;9.748;2024-02-28T03:46:46;27.20;;;15.55;;
8887;SDS011;4480;52.370;9.748;2024-02-28T03:49:15;24.02;;;15.98;;
8887;SDS011;4480;52.370;9.748;2024-02-28T03:51:42;26.42;;;17.00;;
8887;SDS011;4480;52.370;9.748;2024-02-28T03:54:08;29.45;;;16.85;;
8887;SDS011;4480;52.370;9.748;2024-02-28T03:56:35;26.73;;;17.00;;
8887;SDS011;4480;52.370;9.748;2024-02-28T03:59:02;28.45;;;18.48;;
8887;SDS011;4480;52.370;9.748;2024-02-28T04:01:29;29.33;;;17.63;;
8887;SDS011;4480;52.370;9.748;2024-02-28T04:03:56;25.42;;;16.45;;
8887;SDS011;4480;52.370;9.748;2024-02-28T04:06:24;30.33;;;16.75;;
8887;SDS011;4480;52.370;9.748;2024-02-28T04:08:50;30.33;;;18.60;;
8887;SDS011;4480;52.370;9.748;2024-02-28T04:13:14;32.20;;;17.73;;
8887;SDS011;4480;52.370;9.748;2024-02-28T04:15:40;31.08;;;18.25;;
8887;SDS011;4480;52.370;9.748;2024-02-28T04:18:07;29.73;;;18.00;;
8887;SDS011;4480;52.370;9.748;2024-02-28T04:20:34;31.25;;;18.42;;
8887;SDS011;4480;52.370;9.748;2024-02-28T04:23:01;26.17;;;16.50;;
8887;SDS011;4480;52.370;9.748;2024-02-28T04:25:27;30.95;;;19.15;;
8887;SDS011;4480;52.370;9.748;2024-02-28T04:27:54;31.48;;;18.70;;
8887;SDS011;4480;52.370;9.748;2024-02-28T04:30:22;27.30;;;17.45;;
8887;SDS011;4480;52.370;9.748;2024-02-28T04:32:49;31.35;;;18.27;;
8887;SDS011;4480;52.370;9.748;2024-02-28T04:35:16;27.67;;;17.85;;
8887;SDS011;4480;52.370;9.748;2024-02-28T04:37:43;29.73;;;18.40;;
8887;SDS011;4480;52.370;9.748;2024-02-28T04:40:10;28.17;;;16.23;;
8887;SDS011;4480;52.370;9.748;2024-02-28T04:42:37;30.02;;;18.42;;
8887;SDS011;4480;52.370;9.748;2024-02-28T04:45:05;28.77;;;19.30;;
8887;SDS011;4480;52.370;9.748;2024-02-28T04:47:34;28.90;;;18.08;;
8887;SDS011;4480;52.370;9.748;2024-02-28T04:50:01;28.20;;;16.40;;
8887;SDS011;4480;52.370;9.748;2024-02-28T04:52:28;30.83;;;17.92;;
8887;SDS011;4480;52.370;9.748;2024-02-28T04:54:55;31.80;;;19.08;;
8887;SDS011;4480;52.370;9.748;2024-02-28T04:57:21;38.65;;;19.33;;
8887;SDS011;4480;52.370;9.748;2024-02-28T04:59:48;35.25;;;18.42;;
8887;SDS011;4480;52.370;9.748;2024-02-28T05:02:15;29.05;;;18.67;;
8887;SDS011;4480;52.370;9.748;2024-02-28T05:04:43;33.30;;;19.00;;
8887;SDS011;4480;52.370;9.748;2024-02-28T05:07:10;34.15;;;18.80;;
8887;SDS011;4480;52.370;9.748;2024-02-28T05:09:38;36.35;;;18.90;;
8887;SDS011;4480;52.370;9.748;2024-02-28T05:12:05;32.75;;;20.13;;
8887;SDS011;4480;52.370;9.748;2024-02-28T05:14:32;37.72;;;20.17;;
8887;SDS011;4480;52.370;9.748;2024-02-28T05:16:59;28.98;;;18.20;;
8887;SDS011;4480;52.370;9.748;2024-02-28T05:19:26;30.35;;;18.80;;
8887;SDS011;4480;52.370;9.748;2024-02-28T05:21:54;27.75;;;18.08;;
8887;SDS011;4480;52.370;9.748;2024-02-28T05:24:21;35.33;;;18.63;;
8887;SDS011;4480;52.370;9.748;2024-02-28T05:26:47;39.13;;;19.98;;
8887;SDS011;4480;52.370;9.748;2024-02-28T05:29:14;43.10;;;19.42;;
8887;SDS011;4480;52.370;9.748;2024-02-28T05:31:41;37.30;;;19.60;;
8887;SDS011;4480;52.370;9.748;2024-02-28T05:34:08;32.55;;;18.80;;
8887;SDS011;4480;52.370;9.748;2024-02-28T05:36:34;35.38;;;21.52;;
8887;SDS011;4480;52.370;9.748;2024-02-28T05:39:02;32.30;;;19.77;;
8887;SDS011;4480;52.370;9.748;2024-02-28T05:41:30;33.60;;;19.48;;
8887;SDS011;4480;52.370;9.748;2024-02-28T05:43:57;33.47;;;20.85;;
8887;SDS011;4480;52.370;9.748;2024-02-28T05:46:24;30.45;;;17.65;;
8887;SDS011;4480;52.370;9.748;2024-02-28T05:48:51;33.55;;;19.75;;
8887;SDS011;4480;52.370;9.748;2024-02-28T05:51:17;39.30;;;20.95;;
8887;SDS011;4480;52.370;9.748;2024-02-28T05:53:45;32.90;;;20.00;;
8887;SDS011;4480;52.370;9.748;2024-02-28T05:56:13;34.80;;;20.45;;
8887;SDS011;4480;52.370;9.748;2024-02-28T05:58:40;35.28;;;20.65;;
8887;SDS011;4480;52.370;9.748;2024-02-28T06:01:08;32.35;;;18.77;;
8887;SDS011;4480;52.370;9.748;2024-02-28T06:03:35;31.08;;;18.70;;
8887;SDS011;4480;52.370;9.748;2024-02-28T06:06:02;35.85;;;21.88;;
8887;SDS011;4480;52.370;9.748;2024-02-28T06:08:30;31.50;;;18.67;;
8887;SDS011;4480;52.370;9.748;2024-02-28T06:10:57;35.42;;;19.85;;
8887;SDS011;4480;52.370;9.748;2024-02-28T06:13:26;31.10;;;20.23;;
8887;SDS011;4480;52.370;9.748;2024-02-28T06:15:53;34.13;;;19.50;;
8887;SDS011;4480;52.370;9.748;2024-02-28T06:18:20;37.20;;;20.45;;
8887;SDS011;4480;52.370;9.748;2024-02-28T06:20:48;37.22;;;20.83;;
8887;SDS011;4480;52.370;9.748;2024-02-28T06:23:15;40.38;;;20.35;;
8887;SDS011;4480;52.370;9.748;2024-02-28T06:25:42;35.13;;;19.42;;
8887;SDS011;4480;52.370;9.748;2024-02-28T06:28:09;36.65;;;21.48;;
8887;SDS011;4480;52.370;9.748;2024-02-28T06:30:37;32.63;;;19.52;;
8887;SDS011;4480;52.370;9.748;2024-02-28T06:33:04;36.92;;;20.15;;
8887;SDS011;4480;52.370;9.748;2024-02-28T06:35:31;34.53;;;20.55;;
8887;SDS011;4480;52.370;9.748;2024-02-28T06:37:58;37.63;;;20.85;;
8887;SDS011;4480;52.370;9.748;2024-02-28T06:40:24;31.85;;;21.38;;
8887;SDS011;4480;52.370;9.748;2024-02-28T06:42:50;40.53;;;22.53;;
8887;SDS011;4480;52.370;9.748;2024-02-28T06:45:17;33.03;;;20.13;;
8887;SDS011;4480;52.370;9.748;2024-02-28T06:47:45;30.85;;;19.25;;
8887;SDS011;4480;52.370;9.748;2024-02-28T06:50:13;32.00;;;19.38;;
8887;SDS011;4480;52.370;9.748;2024-02-28T06:52:40;36.15;;;21.02;;
8887;SDS011;4480;52.370;9.748;2024-02-28T06:55:07;37.30;;;20.73;;
8887;SDS011;4480;52.370;9.748;2024-02-28T06:57:35;38.22;;;21.70;;
8887;SDS011;4480;52.370;9.748;2024-02-28T07:00:02;32.58;;;21.00;;
8887;SDS011;4480;52.370;9.748;2024-02-28T07:02:29;38.35;;;22.75;;
8887;SDS011;4480;52.370;9.748;2024-02-28T07:04:58;30.77;;;19.55;;
8887;SDS011;4480;52.370;9.748;2024-02-28T07:07:24;36.33;;;22.48;;
8887;SDS011;4480;52.370;9.748;2024-02-28T07:09:51;36.33;;;20.10;;
8887;SDS011;4480;52.370;9.748;2024-02-28T07:12:18;33.67;;;20.85;;
8887;SDS011;4480;52.370;9.748;2024-02-28T07:14:45;36.30;;;20.73;;
8887;SDS011;4480;52.370;9.748;2024-02-28T07:17:11;36.50;;;21.05;;
8887;SDS011;4480;52.370;9.748;2024-02-28T07:19:38;35.67;;;20.40;;
8887;SDS011;4480;52.370;9.748;2024-02-28T07:22:06;34.15;;;22.73;;
8887;SDS011;4480;52.370;9.748;2024-02-28T07:24:33;36.30;;;22.23;;
8887;SDS011;4480;52.370;9.748;2024-02-28T07:26:59;34.75;;;19.70;;
8887;SDS011;4480;52.370;9.748;2024-02-28T07:29:26;36.45;;;22.27;;
8887;SDS011;4480;52.370;9.748;2024-02-28T07:31:53;38.95;;;22.10;;
8887;SDS011;4480;52.370;9.748;2024-02-28T07:34:20;36.50;;;21.38;;
8887;SDS011;4480;52.370;9.748;2024-02-28T07:36:47;42.08;;;22.58;;
8887;SDS011;4480;52.370;9.748;2024-02-28T07:39:15;33.40;;;20.73;;
8887;SDS011;4480;52.370;9.748;2024-02-28T07:41:41;35.85;;;22.25;;
8887;SDS011;4480;52.370;9.748;2024-02-28T07:44:08;36.08;;;19.65;;
8887;SDS011;4480;52.370;9.748;2024-02-28T07:46:36;34.63;;;22.52;;
8887;SDS011;4480;52.370;9.748;2024-02-28T07:49:03;31.30;;;18.77;;
8887;SDS011;4480;52.370;9.748;2024-02-28T07:51:30;35.95;;;22.75;;
8887;SDS011;4480;52.370;9.748;2024-02-28T07:53:57;32.72;;;19.98;;
8887;SDS011;4480;52.370;9.748;2024-02-28T07:56:25;34.58;;;21.88;;
8887;SDS011;4480;52.370;9.748;2024-02-28T07:58:52;31.55;;;22.05;;
8887;SDS011;4480;52.370;9.748;2024-02-28T08:01:18;35.13;;;19.40;;
8887;SDS011;4480;52.370;9.748;2024-02-28T08:03:47;35.65;;;22.15;;
8887;SDS011;4480;52.370;9.748;2024-02-28T08:06:14;34.00;;;20.45;;
8887;SDS011;4480;52.370;9.748;2024-02-28T08:08:43;37.38;;;22.35;;
8887;SDS011;4480;52.370;9.748;2024-02-28T08:11:10;34.10;;;19.98;;
8887;SDS011;4480;52.370;9.748;2024-02-28T08:13:38;36.72;;;21.80;;
8887;SDS011;4480;52.370;9.748;2024-02-28T08:16:05;33.20;;;21.10;;
8887;SDS011;4480;52.370;9.748;2024-02-28T08:18:34;30.98;;;19.75;;
8887;SDS011;4480;52.370;9.748;2024-02-28T08:21:01;31.55;;;19.67;;
8887;SDS011;4480;52.370;9.748;2024-02-28T08:23:28;32.97;;;20.90;;
8887;SDS011;4480;52.370;9.748;2024-02-28T08:25:55;31.20;;;19.92;;
8887;SDS011;4480;52.370;9.748;2024-02-28T08:28:22;35.55;;;23.63;;
8887;SDS011;4480;52.370;9.748;2024-02-28T08:30:50;36.42;;;21.98;;
8887;SDS011;4480;52.370;9.748;2024-02-28T08:33:17;36.30;;;22.45;;
8887;SDS011;4480;52.370;9.748;2024-02-28T08:35:44;39.13;;;23.38;;
8887;SDS011;4480;52.370;9.748;2024-02-28T08:38:11;36.13;;;22.90;;
8887;SDS011;4480;52.370;9.748;2024-02-28T08:40:38;34.25;;;21.13;;
8887;SDS011;4480;52.370;9.748;2024-02-28T08:43:05;35.50;;;21.52;;
8887;SDS011;4480;52.370;9.748;2024-02-28T08:45:31;35.38;;;21.63;;
8887;SDS011;4480;52.370;9.748;2024-02-28T08:48:00;35.83;;;22.25;;
8887;SDS011;4480;52.370;9.748;2024-02-28T08:50:27;36.90;;;21.30;;
8887;SDS011;4480;52.370;9.748;2024-02-28T08:52:54;31.33;;;21.23;;
8887;SDS011;4480;52.370;9.748;2024-02-28T08:55:20;36.55;;;22.30;;
8887;SDS011;4480;52.370;9.748;2024-02-28T08:57:47;39.58;;;24.73;;
8887;SDS011;4480;52.370;9.748;2024-02-28T09:00:14;34.78;;;21.23;;
8887;SDS011;4480;52.370;9.748;2024-02-28T09:02:42;35.03;;;22.48;;
8887;SDS011;4480;52.370;9.748;2024-02-28T09:05:10;34.30;;;22.23;;
8887;SDS011;4480;52.370;9.748;2024-02-28T09:07:37;39.97;;;22.83;;
8887;SDS011;4480;52.370;9.748;2024-02-28T09:10:04;36.65;;;21.00;;
8887;SDS011;4480;52.370;9.748;2024-02-28T09:12:31;31.23;;;19.75;;
8887;SDS011;4480;52.370;9.748;2024-02-28T09:14:58;35.53;;;21.40;;
8887;SDS011;4480;52.370;9.748;2024-02-28T09:17:25;32.20;;;20.90;;
8887;SDS011;4480;52.370;9.748;2024-02-28T09:19:52;30.33;;;18.40;;
8887;SDS011;4480;52.370;9.748;2024-02-28T09:22:20;29.75;;;19.65;;
8887;SDS011;4480;52.370;9.748;2024-02-28T09:24:48;38.03;;;21.85;;
8887;SDS011;4480;52.370;9.748;2024-02-28T09:27:15;35.90;;;20.70;;
8887;SDS011;4480;52.370;9.748;2024-02-28T09:29:43;33.67;;;20.15;;
8887;SDS011;4480;52.370;9.748;2024-02-28T09:32:10;33.38;;;18.88;;
8887;SDS011;4480;52.370;9.748;2024-02-28T09:34:37;29.48;;;19.70;;
8887;SDS011;4480;52.370;9.748;2024-02-28T09:37:04;31.00;;;18.17;;
8887;SDS011;4480;52.370;9.748;2024-02-28T09:39:32;30.77;;;20.92;;
8887;SDS011;4480;52.370;9.748;2024-02-28T09:41:59;32.20;;;20.02;;
8887;SDS011;4480;52.370;9.748;2024-02-28T09:44:25;27.23;;;17.80;;
8887;SDS011;4480;52.370;9.748;2024-02-28T09:46:53;31.83;;;18.67;;
8887;SDS011;4480;52.370;9.748;2024-02-28T09:49:19;35.30;;;20.67;;
8887;SDS011;4480;52.370;9.748;2024-02-28T09:51:48;31.42;;;19.27;;
8887;SDS011;4480;52.370;9.748;2024-02-28T09:54:16;33.42;;;19.45;;
8887;SDS011;4480;52.370;9.748;2024-02-28T09:56:44;29.02;;;18.40;;
8887;SDS011;4480;52.370;9.748;2024-02-28T09:59:13;29.77;;;19.33;;
8887;SDS011;4480;52.370;9.748;2024-02-28T10:01:42;32.67;;;19.60;;
8887;SDS011;4480;52.370;9.748;2024-02-28T10:04:09;29.98;;;20.00;;
8887;SDS011;4480;52.370;9.748;2024-02-28T10:06:38;30.52;;;19.73;;
8887;SDS011;4480;52.370;9.748;2024-02-28T10:09:05;29.98;;;19.40;;
8887;SDS011;4480;52.370;9.748;2024-02-28T10:11:32;34.83;;;21.40;;
8887;SDS011;4480;52.370;9.748;2024-02-28T10:14:01;30.08;;;19.33;;
8887;SDS011;4480;52.370;9.748;2024-02-28T10:16:28;32.47;;;20.23;;
8887;SDS011;4480;52.370;9.748;2024-02-28T10:18:55;29.65;;;19.77;;
8887;SDS011;4480;52.370;9.748;2024-02-28T10:21:22;29.95;;;18.50;;
8887;SDS011;4480;52.370;9.748;2024-02-28T10:23:51;26.88;;;19.10;;
8887;SDS011;4480;52.370;9.748;2024-02-28T10:26:18;30.67;;;19.30;;
8887;SDS011;4480;52.370;9.748;2024-02-28T10:28:44;31.48;;;19.50;;
8887;SDS011;4480;52.370;9.748;2024-02-28T10:31:12;29.90;;;18.40;;
8887;SDS011;4480;52.370;9.748;2024-02-28T10:33:41;30.30;;;19.17;;
8887;SDS011;4480;52.370;9.748;2024-02-28T10:36:08;33.58;;;19.88;;
8887;SDS011;4480;52.370;9.748;2024-02-28T10:38:35;29.73;;;20.10;;
8887;SDS011;4480;52.370;9.748;2024-02-28T10:41:03;28.48;;;18.05;;
8887;SDS011;4480;52.370;9.748;2024-02-28T10:43:30;29.20;;;20.08;;
8887;SDS011;4480;52.370;9.748;2024-02-28T10:45:59;30.60;;;19.17;;
8887;SDS011;4480;52.370;9.748;2024-02-28T10:48:28;32.92;;;20.45;;
8887;SDS011;4480;52.370;9.748;2024-02-28T10:50:54;29.98;;;19.92;;
8887;SDS011;4480;52.370;9.748;2024-02-28T10:53:21;28.83;;;18.52;;
8887;SDS011;4480;52.370;9.748;2024-02-28T10:55:52;28.05;;;18.92;;
8887;SDS011;4480;52.370;9.748;2024-02-28T10:58:24;32.33;;;19.85;;
8887;SDS011;4480;52.370;9.748;2024-02-28T11:00:55;34.15;;;19.25;;
8887;SDS011;4480;52.370;9.748;2024-02-28T11:03:22;30.23;;;20.55;;
8887;SDS011;4480;52.370;9.748;2024-02-28T11:05:50;33.42;;;20.75;;
8887;SDS011;4480;52.370;9.748;2024-02-28T11:08:20;33.13;;;21.58;;
8887;SDS011;4480;52.370;9.748;2024-02-28T11:10:54;32.47;;;20.70;;
8887;SDS011;4480;52.370;9.748;2024-02-28T11:13:21;35.10;;;21.55;;
8887;SDS011;4480;52.370;9.748;2024-02-28T11:15:49;34.20;;;20.95;;
8887;SDS011;4480;52.370;9.748;2024-02-28T11:18:16;36.65;;;22.30;;
8887;SDS011;4480;52.370;9.748;2024-02-28T11:20:43;31.90;;;21.33;;
8887;SDS011;4480;52.370;9.748;2024-02-28T11:23:12;33.78;;;22.02;;
8887;SDS011;4480;52.370;9.748;2024-02-28T11:25:40;34.95;;;21.67;;
8887;SDS011;4480;52.370;9.748;2024-02-28T11:28:07;32.95;;;21.83;;
8887;SDS011;4480;52.370;9.748;2024-02-28T11:30:34;35.25;;;21.20;;
8887;SDS011;4480;52.370;9.748;2024-02-28T11:33:01;30.88;;;20.27;;
8887;SDS011;4480;52.370;9.748;2024-02-28T11:35:28;31.65;;;20.70;;
8887;SDS011;4480;52.370;9.748;2024-02-28T11:37:56;37.08;;;21.92;;
8887;SDS011;4480;52.370;9.748;2024-02-28T11:40:24;34.45;;;21.73;;
8887;SDS011;4480;52.370;9.748;2024-02-28T11:42:51;31.00;;;19.85;;
8887;SDS011;4480;52.370;9.748;2024-02-28T11:45:18;30.83;;;19.10;;
8887;SDS011;4480;52.370;9.748;2024-02-28T11:47:45;32.35;;;20.67;;
8887;SDS011;4480;52.370;9.748;2024-02-28T11:50:12;41.28;;;21.92;;
8887;SDS011;4480;52.370;9.748;2024-02-28T11:52:40;33.45;;;20.20;;
8887;SDS011;4480;52.370;9.748;2024-02-28T11:55:07;30.55;;;20.13;;
8887;SDS011;4480;52.370;9.748;2024-02-28T11:57:35;35.17;;;22.05;;
8887;SDS011;4480;52.370;9.748;2024-02-28T12:00:04;30.00;;;19.70;;
8887;SDS011;4480;52.370;9.748;2024-02-28T12:02:32;30.17;;;19.85;;
8887;SDS011;4480;52.370;9.748;2024-02-28T12:05:00;30.20;;;19.85;;
8887;SDS011;4480;52.370;9.748;2024-02-28T12:07:29;32.97;;;20.45;;
8887;SDS011;4480;52.370;9.748;2024-02-28T12:09:55;29.38;;;18.75;;
8887;SDS011;4480;52.370;9.748;2024-02-28T12:12:22;29.15;;;19.27;;
8887;SDS011;4480;52.370;9.748;2024-02-28T12:14:51;32.95;;;20.35;;
8887;SDS011;4480;52.370;9.748;2024-02-28T12:17:17;29.63;;;20.15;;
8887;SDS011;4480;52.370;9.748;2024-02-28T12:19:45;32.35;;;22.05;;
8887;SDS011;4480;52.370;9.748;2024-02-28T12:22:11;32.25;;;22.00;;
8887;SDS011;4480;52.370;9.748;2024-02-28T12:24:38;36.20;;;23.02;;
8887;SDS011;4480;52.370;9.748;2024-02-28T12:27:05;39.33;;;21.33;;
8887;SDS011;4480;52.370;9.748;2024-02-28T12:29:31;33.00;;;21.42;;
8887;SDS011;4480;52.370;9.748;2024-02-28T12:32:00;34.13;;;21.30;;
8887;SDS011;4480;52.370;9.748;2024-02-28T12:34:26;35.30;;;21.98;;
8887;SDS011;4480;52.370;9.748;2024-02-28T12:36:53;38.55;;;22.98;;
8887;SDS011;4480;52.370;9.748;2024-02-28T12:39:20;35.30;;;20.27;;
8887;SDS011;4480;52.370;9.748;2024-02-28T12:41:47;33.80;;;21.02;;
8887;SDS011;4480;52.370;9.748;2024-02-28T12:44:14;34.55;;;22.77;;
8887;SDS011;4480;52.370;9.748;2024-02-28T12:46:41;32.03;;;22.00;;
8887;SDS011;4480;52.370;9.748;2024-02-28T12:49:09;34.08;;;21.95;;
8887;SDS011;4480;52.370;9.748;2024-02-28T12:51:36;31.63;;;20.53;;
8887;SDS011;4480;52.370;9.748;2024-02-28T12:54:05;31.48;;;20.55;;
8887;SDS011;4480;52.370;9.748;2024-02-28T12:56:32;31.87;;;21.00;;
8887;SDS011;4480;52.370;9.748;2024-02-28T12:58:59;34.88;;;22.15;;
8887;SDS011;4480;52.370;9.748;2024-02-28T13:01:26;35.53;;;22.90;;
8887;SDS011;4480;52.370;9.748;2024-02-28T13:03:53;39.10;;;23.17;;
8887;SDS011;4480;52.370;9.748;2024-02-28T13:06:21;34.22;;;21.70;;
8887;SDS011;4480;52.370;9.748;2024-02-28T13:08:48;30.63;;;20.43;;
8887;SDS011;4480;52.370;9.748;2024-02-28T13:11:17;34.30;;;21.40;;
8887;SDS011;4480;52.370;9.748;2024-02-28T13:13:45;36.30;;;22.67;;
8887;SDS011;4480;52.370;9.748;2024-02-28T13:16:12;34.20;;;21.50;;
8887;SDS011;4480;52.370;9.748;2024-02-28T13:18:38;34.07;;;21.37;;
8887;SDS011;4480;52.370;9.748;2024-02-28T13:21:05;30.20;;;20.05;;
8887;SDS011;4480;52.370;9.748;2024-02-28T13:23:33;36.25;;;21.88;;
8887;SDS011;4480;52.370;9.748;2024-02-28T13:26:00;31.77;;;21.45;;
8887;SDS011;4480;52.370;9.748;2024-02-28T13:28:27;34.58;;;22.35;;
8887;SDS011;4480;52.370;9.748;2024-02-28T13:30:55;35.17;;;22.00;;
8887;SDS011;4480;52.370;9.748;2024-02-28T13:33:22;37.30;;;21.48;;
8887;SDS011;4480;52.370;9.748;2024-02-28T13:35:49;32.83;;;22.05;;
8887;SDS011;4480;52.370;9.748;2024-02-28T13:38:16;36.63;;;21.67;;
8887;SDS011;4480;52.370;9.748;2024-02-28T13:40:45;37.20;;;22.90;;
8887;SDS011;4480;52.370;9.748;2024-02-28T13:43:12;28.92;;;20.05;;
8887;SDS011;4480;52.370;9.748;2024-02-28T13:45:39;33.30;;;20.58;;
8887;SDS011;4480;52.370;9.748;2024-02-28T13:48:14;33.83;;;21.85;;
8887;SDS011;4480;52.370;9.748;2024-02-28T13:50:42;34.88;;;22.35;;
8887;SDS011;4480;52.370;9.748;2024-02-28T13:53:09;35.20;;;20.55;;
8887;SDS011;4480;52.370;9.748;2024-02-28T13:55:36;34.42;;;21.88;;
8887;SDS011;4480;52.370;9.748;2024-02-28T13:58:04;34.10;;;21.13;;
8887;SDS011;4480;52.370;9.748;2024-02-28T14:00:33;32.03;;;20.38;;
8887;SDS011;4480;52.370;9.748;2024-02-28T14:02:59;29.70;;;21.48;;
8887;SDS011;4480;52.370;9.748;2024-02-28T14:05:26;32.05;;;19.42;;
8887;SDS011;4480;52.370;9.748;2024-02-28T14:07:53;33.28;;;20.35;;
8887;SDS011;4480;52.370;9.748;2024-02-28T14:10:20;32.58;;;20.35;;
8887;SDS011;4480;52.370;9.748;2024-02-28T14:12:47;37.08;;;22.05;;
8887;SDS011;4480;52.370;9.748;2024-02-28T14:15:16;29.75;;;17.92;;
8887;SDS011;4480;52.370;9.748;2024-02-28T14:17:42;32.72;;;19.90;;
8887;SDS011;4480;52.370;9.748;2024-02-28T14:20:11;34.63;;;20.58;;
8887;SDS011;4480;52.370;9.748;2024-02-28T14:22:38;33.05;;;19.95;;
8887;SDS011;4480;52.370;9.748;2024-02-28T14:25:07;34.35;;;22.50;;
8887;SDS011;4480;52.370;9.748;2024-02-28T14:27:37;32.45;;;18.42;;
8887;SDS011;4480;52.370;9.748;2024-02-28T14:30:04;30.40;;;18.57;;
8887;SDS011;4480;52.370;9.748;2024-02-28T14:32:35;31.63;;;19.43;;
8887;SDS011;4480;52.370;9.748;2024-02-28T14:35:02;30.52;;;20.75;;
8887;SDS011;4480;52.370;9.748;2024-02-28T14:37:29;33.20;;;20.90;;
8887;SDS011;4480;52.370;9.748;2024-02-28T14:39:56;34.63;;;21.15;;
8887;SDS011;4480;52.370;9.748;2024-02-28T14:42:23;31.93;;;18.13;;
8887;SDS011;4480;52.370;9.748;2024-02-28T14:44:49;31.57;;;19.80;;
8887;SDS011;4480;52.370;9.748;2024-02-28T14:47:18;28.77;;;19.70;;
8887;SDS011;4480;52.370;9.748;2024-02-28T14:49:46;27.83;;;17.63;;